Time;durP1;ratioP1;P1;durP2;ratioP2;P2;SDS_P1;SDS_P2;PMS_P1;PMS_P2;Temp;Humidity;BMP_temperature;BMP_pressure;BME280_temperature;BME280_humidity;BME280_pressure;Samples;Min_cycle;Max_cycle;Signal;HPM_P1;HPM_P2
2023/10/12 00:02:21;;;;;;;9.65;7.35;;;18.90;99.90;;;;;;4999289;28;20134;-92
2023/10/12 00:04:50;;;;;;;13.50;7.75;;;18.90;99.90;;;;;;5031642;28;20477;-92
2023/10/12 00:07:17;;;;;;;11.88;8.27;;;18.90;99.90;;;;;;5016556;28;20133;-91
2023/10/12 00:10:09;;;;;;;11.27;8.02;;;18.90;99.90;;;;;;5033387;28;20028;-91
2023/10/12 00:12:36;;;;;;;10.60;8.48;;;18.90;99.90;;;;;;5004582;28;20022;-92
2023/10/12 00:15:05;;;;;;;11.77;8.23;;;18.90;99.90;;;;;;4999724;28;20079;-94
2023/10/12 00:17:33;;;;;;;11.57;8.55;;;18.90;99.90;;;;;;5017343;28;20032;-92
2023/10/12 00:19:59;;;;;;;11.35;8.50;;;18.90;99.90;;;;;;5016941;28;20025;-93
2023/10/12 00:22:25;;;;;;;13.77;8.27;;;18.90;99.90;;;;;;5015261;28;20021;-92
2023/10/12 00:24:52;;;;;;;13.38;9.68;;;18.90;99.90;;;;;;5017882;28;20383;-93
2023/10/12 00:27:18;;;;;;;12.25;9.13;;;18.90;99.90;;;;;;5033873;28;20030;-92
2023/10/12 00:29:48;;;;;;;11.93;8.98;;;18.90;99.90;;;;;;5016835;28;20045;-90
2023/10/12 00:32:16;;;;;;;11.88;8.45;;;18.90;99.90;;;;;;5017274;28;20195;-91
2023/10/12 00:34:46;;;;;;;13.55;9.55;;;18.90;99.90;;;;;;5034796;28;20021;-89
2023/10/12 00:37:13;;;;;;;12.27;9.02;;;18.80;99.90;;;;;;5034247;28;20063;-88
2023/10/12 00:40:22;;;;;;;12.18;9.02;;;18.90;99.90;;;;;;5017152;28;20241;-90
2023/10/12 00:42:53;;;;;;;14.75;9.82;;;18.80;99.90;;;;;;5034537;28;20112;-90
2023/10/12 00:45:20;;;;;;;12.45;8.73;;;18.80;99.90;;;;;;5017015;28;20112;-92
2023/10/12 00:47:51;;;;;;;13.65;10.32;;;18.80;99.90;;;;;;5017641;28;20420;-91
2023/10/12 00:50:19;;;;;;;;;;;18.80;99.90;;;;;;5001880;28;20125;-91
2023/10/12 00:55:35;;;;;;;13.75;9.35;;;18.70;99.90;;;;;;5019158;28;20042;-90
2023/10/12 00:58:05;;;;;;;16.08;10.40;;;18.70;99.90;;;;;;5017746;28;20021;-91
2023/10/12 01:00:51;;;;;;;17.13;10.98;;;18.70;99.90;;;;;;5017735;28;20408;-90
2023/10/12 01:08:46;;;;;;;13.65;10.10;;;18.70;99.90;;;;;;5035083;28;20067;-92
2023/10/12 01:11:20;;;;;;;13.10;9.43;;;18.70;99.90;;;;;;5034779;28;20022;-90
2023/10/12 01:17:15;;;;;;;16.45;10.82;;;18.60;99.90;;;;;;5018855;28;20083;-91
2023/10/12 01:19:20;;;;;;;14.45;10.75;;;18.70;99.90;;;;;;5012062;28;20033;-91
2023/10/12 01:21:49;;;;;;;14.48;10.88;;;18.70;99.90;;;;;;5048204;28;20005;-90
2023/10/12 01:24:24;;;;;;;15.05;11.27;;;18.60;99.90;;;;;;5056486;28;20010;-91
2023/10/12 01:26:56;;;;;;;16.95;11.20;;;18.70;99.90;;;;;;5025175;28;20009;-91
2023/10/12 01:29:25;;;;;;;17.30;11.82;;;18.70;99.90;;;;;;5057276;28;20069;-87
2023/10/12 01:34:37;;;;;;;17.13;11.00;;;18.70;99.90;;;;;;5036789;28;20033;-92
2023/10/12 01:37:22;;;;;;;15.65;10.80;;;18.70;99.90;;;;;;5002074;28;20057;-91
2023/10/12 01:43:02;;;;;;;16.75;11.30;;;18.60;99.90;;;;;;5034738;28;20354;-90
2023/10/12 01:48:06;;;;;;;15.80;11.27;;;18.60;99.90;;;;;;5034233;28;20030;-93
2023/10/12 01:50:38;;;;;;;16.20;12.30;;;18.60;99.90;;;;;;5016976;28;20053;-92
2023/10/12 01:53:44;;;;;;;14.52;10.70;;;18.60;99.90;;;;;;5033196;28;20076;-92
2023/10/12 01:56:09;;;;;;;14.20;10.95;;;18.60;99.90;;;;;;5030786;28;20037;-91
2023/10/12 01:58:37;;;;;;;14.63;10.13;;;18.60;99.90;;;;;;5033214;28;20028;-89
2023/10/12 02:01:07;;;;;;;16.05;10.85;;;18.60;99.90;;;;;;5033332;28;20032;-90
2023/10/12 02:03:42;;;;;;;15.65;11.63;;;18.60;99.90;;;;;;5016822;28;20453;-91
2023/10/12 02:06:16;;;;;;;16.02;11.27;;;18.60;99.90;;;;;;5034735;28;20056;-90
2023/10/12 02:08:46;;;;;;;16.05;11.35;;;18.50;99.90;;;;;;5033353;28;20087;-92
2023/10/12 02:13:48;;;;;;;14.70;11.38;;;18.50;99.90;;;;;;5016395;28;20030;-92
2023/10/12 02:16:23;;;;;;;14.02;10.90;;;18.50;99.90;;;;;;5032644;28;20032;-91
2023/10/12 02:18:55;;;;;;;18.63;11.93;;;18.50;99.90;;;;;;5034098;28;20032;-90
2023/10/12 02:21:22;;;;;;;14.65;11.02;;;18.50;99.90;;;;;;5033071;28;20026;-91
2023/10/12 02:23:56;;;;;;;15.20;11.48;;;18.50;99.90;;;;;;5016375;28;20533;-90
2023/10/12 02:26:51;;;;;;;16.55;11.52;;;18.50;99.90;;;;;;5032758;28;20085;-89
2023/10/12 02:29:20;;;;;;;14.10;10.88;;;18.50;99.90;;;;;;5032840;28;20029;-90
2023/10/12 02:34:31;;;;;;;12.33;9.93;;;18.50;99.90;;;;;;5033779;28;20034;-91
2023/10/12 02:39:37;;;;;;;15.52;11.07;;;18.50;99.90;;;;;;5037261;28;20428;-90
2023/10/12 02:44:36;;;;;;;13.63;10.68;;;18.50;99.90;;;;;;5037303;28;20088;-90
2023/10/12 02:47:12;;;;;;;14.93;10.20;;;18.50;99.90;;;;;;5003901;28;20116;-90
2023/10/12 02:49:41;;;;;;;13.13;10.60;;;18.50;99.90;;;;;;5035949;28;20083;-89
2023/10/12 02:52:24;;;;;;;13.02;10.35;;;18.50;99.90;;;;;;5003652;28;20022;-90
2023/10/12 02:54:51;;;;;;;15.15;10.50;;;18.50;99.90;;;;;;5037869;28;20076;-91
2023/10/12 03:00:16;;;;;;;15.05;11.18;;;18.50;99.90;;;;;;5013860;28;20107;-90
2023/10/12 03:02:53;;;;;;;13.27;9.63;;;18.60;99.90;;;;;;5036453;28;20033;-90
2023/10/12 03:05:31;;;;;;;15.88;10.88;;;18.50;99.90;;;;;;5019725;28;20049;-92
2023/10/12 03:08:06;;;;;;;14.55;9.48;;;18.50;99.90;;;;;;5036942;28;20052;-91
2023/10/12 03:10:32;;;;;;;12.38;8.65;;;18.50;99.90;;;;;;5037218;28;20033;-90
2023/10/12 03:13:04;;;;;;;13.07;8.20;;;18.50;99.90;;;;;;5056206;28;20048;-89
2023/10/12 03:15:55;;;;;;;12.50;8.07;;;18.50;99.90;;;;;;5042523;28;20037;-86
2023/10/12 03:18:26;;;;;;;;;;;18.50;99.90;;;;;;5060206;28;20009;-89
2023/10/12 03:21:05;;;;;;;11.07;7.47;;;18.50;99.90;;;;;;5058645;28;19977;-88
2023/10/12 03:23:34;;;;;;;11.57;7.07;;;18.40;99.90;;;;;;5057614;28;20020;-85
2023/10/12 03:26:18;;;;;;;13.57;7.05;;;18.40;99.90;;;;;;5036500;28;20041;-88
2023/10/12 03:28:50;;;;;;;13.18;7.50;;;18.30;99.90;;;;;;5039723;28;20017;-88
2023/10/12 03:31:33;;;;;;;10.63;6.55;;;18.40;99.90;;;;;;5034178;28;20106;-88
2023/10/12 03:34:02;;;;;;;14.52;7.00;;;18.30;99.90;;;;;;5021044;28;20045;-90
2023/10/12 03:36:36;;;;;;;10.95;6.45;;;18.30;99.90;;;;;;5034652;28;20038;-88
2023/10/12 03:47:17;;;;;;;10.70;6.55;;;18.20;99.90;;;;;;5035924;28;20624;-90
2023/10/12 03:52:19;;;;;;;12.90;6.82;;;18.20;99.90;;;;;;5035851;28;20465;-89
2023/10/12 03:57:39;;;;;;;11.73;6.43;;;18.20;99.90;;;;;;5035168;28;20034;-89
2023/10/12 04:02:56;;;;;;;15.18;7.60;;;18.20;99.90;;;;;;5017123;28;20026;-89
2023/10/12 04:08:00;;;;;;;9.55;6.30;;;18.20;99.90;;;;;;5018574;28;20037;-89
2023/10/12 04:18:46;;;;;;;10.77;6.60;;;18.20;99.90;;;;;;5019063;28;20029;-90
2023/10/12 04:22:05;;;;;;;13.10;7.78;;;18.20;99.90;;;;;;5001551;28;20035;-88
2023/10/12 04:29:39;;;;;;;14.80;7.35;;;18.20;99.90;;;;;;5035186;28;20033;-87
2023/10/12 04:32:15;;;;;;;11.32;6.90;;;18.20;99.90;;;;;;5034208;28;20041;-88
2023/10/12 04:34:49;;;;;;;12.18;6.78;;;18.20;99.90;;;;;;5033854;28;20128;-88
2023/10/12 04:37:27;;;;;;;11.57;7.28;;;18.20;99.90;;;;;;5017991;28;20065;-87
2023/10/12 04:40:16;;;;;;;12.40;6.72;;;18.20;99.90;;;;;;5034657;28;20022;-89
2023/10/12 04:42:46;;;;;;;9.35;6.43;;;18.20;99.90;;;;;;5033760;28;20036;-88
2023/10/12 04:48:07;;;;;;;10.43;6.72;;;18.20;99.90;;;;;;5034653;28;20401;-88
2023/10/12 04:50:52;;;;;;;9.90;6.80;;;18.20;99.90;;;;;;5020370;28;20034;-89
2023/10/12 04:53:35;;;;;;;12.00;7.22;;;18.20;99.90;;;;;;5038042;28;20036;-88
2023/10/12 04:56:10;;;;;;;12.70;7.90;;;18.20;99.90;;;;;;5027407;28;20523;-90
2023/10/12 04:59:05;;;;;;;12.48;8.02;;;18.20;99.90;;;;;;5047414;28;20047;-90
2023/10/12 05:04:36;;;;;;;12.45;9.13;;;18.20;99.90;;;;;;5034994;28;20191;-88
2023/10/12 05:09:48;;;;;;;13.02;9.75;;;18.20;99.90;;;;;;5044005;28;20047;-90
2023/10/12 05:12:25;;;;;;;13.50;10.38;;;18.20;99.90;;;;;;5040837;28;20033;-91
2023/10/12 05:15:00;;;;;;;12.27;10.90;;;18.20;99.90;;;;;;5017057;28;20017;-89
2023/10/12 05:17:29;;;;;;;12.00;10.57;;;18.30;99.90;;;;;;5033704;28;20508;-88
2023/10/12 05:19:57;;;;;;;12.43;11.10;;;18.30;99.90;;;;;;5000512;28;20030;-89
2023/10/12 05:22:23;;;;;;;17.50;12.55;;;18.30;99.90;;;;;;5016810;28;20100;-89
2023/10/12 05:24:49;;;;;;;16.08;12.38;;;18.30;99.90;;;;;;5016417;28;20461;-88
2023/10/12 05:27:28;;;;;;;15.63;13.82;;;18.30;99.90;;;;;;5032007;28;20036;-90
2023/10/12 05:30:05;;;;;;;18.17;13.88;;;18.20;99.90;;;;;;5018147;28;20030;-90
2023/10/12 05:32:55;;;;;;;18.27;13.95;;;18.20;99.90;;;;;;5011586;28;20500;-89
2023/10/12 05:35:46;;;;;;;16.85;14.65;;;18.20;99.90;;;;;;5013068;28;20025;-92
2023/10/12 05:38:07;;;;;;;15.98;14.27;;;18.20;99.90;;;;;;5013963;28;20034;-90
2023/10/12 05:40:43;;;;;;;18.13;15.60;;;18.20;99.90;;;;;;5014237;28;20089;-88
2023/10/12 05:43:21;;;;;;;17.25;14.55;;;18.20;99.90;;;;;;5014433;28;20026;-90
2023/10/12 05:45:50;;;;;;;18.13;14.93;;;18.20;99.90;;;;;;5014633;28;20030;-88
2023/10/12 05:48:19;;;;;;;21.52;17.27;;;18.20;99.90;;;;;;5013058;28;20030;-90
2023/10/12 05:50:53;;;;;;;18.23;16.33;;;18.20;99.90;;;;;;4996933;28;20437;-89
2023/10/12 05:53:24;;;;;;;18.98;15.35;;;18.20;99.90;;;;;;4998831;28;20034;-90
2023/10/12 05:55:52;;;;;;;;;;;18.20;99.90;;;;;;5013878;28;20041;-89
2023/10/12 05:58:33;;;;;;;16.35;14.63;;;18.20;99.90;;;;;;5029714;28;19906;-89
2023/10/12 06:01:45;;;;;;;17.08;15.20;;;18.10;99.90;;;;;;5013384;28;20210;-89
2023/10/12 06:03:56;;;;;;;16.40;14.63;;;18.10;99.90;;;;;;5005716;28;20026;-91
2023/10/12 06:06:25;;;;;;;20.40;16.23;;;18.10;99.90;;;;;;4997539;28;20121;-90
2023/10/12 06:08:53;;;;;;;17.35;15.55;;;18.10;99.90;;;;;;5013131;28;20029;-89
2023/10/12 06:11:26;;;;;;;18.55;15.00;;;18.10;99.90;;;;;;5014921;28;20033;-90
2023/10/12 06:13:54;;;;;;;20.95;15.35;;;18.10;99.90;;;;;;5033345;28;20438;-90
2023/10/12 06:16:25;;;;;;;;;;;18.10;99.90;;;;;;5017274;28;20034;-91
2023/10/12 06:19:00;;;;;;;18.27;14.93;;;18.10;99.90;;;;;;5017909;28;19959;-90
2023/10/12 06:21:28;;;;;;;18.80;15.98;;;18.10;99.90;;;;;;5000866;28;20397;-89
2023/10/12 06:23:59;;;;;;;18.67;16.45;;;18.10;99.90;;;;;;5016763;28;20026;-90
2023/10/12 06:26:34;;;;;;;18.33;15.60;;;18.10;99.90;;;;;;5017317;28;20034;-90
2023/10/12 06:29:01;;;;;;;18.05;16.15;;;18.10;99.90;;;;;;5016783;28;20089;-91
2023/10/12 06:31:29;;;;;;;17.95;16.05;;;18.10;99.90;;;;;;5016293;28;20042;-89
2023/10/12 06:34:10;;;;;;;17.85;15.98;;;18.10;99.90;;;;;;5016506;28;20026;-90
2023/10/12 06:36:41;;;;;;;21.33;17.60;;;18.20;99.90;;;;;;5016862;28;20077;-89
2023/10/12 06:44:25;;;;;;;20.02;17.70;;;18.10;99.90;;;;;;5018326;28;20034;-90
2023/10/12 06:47:41;;;;;;;15.50;13.88;;;18.10;99.90;;;;;;5018671;28;20040;-89
2023/10/12 06:50:17;;;;;;;7.65;4.78;;;18.10;99.90;;;;;;5020195;28;20087;-91
2023/10/12 06:55:56;;;;;;;1.92;1.40;;;17.70;99.90;;;;;;5035331;28;20108;-90
2023/10/12 06:58:48;;;;;;;2.72;1.30;;;17.50;99.90;;;;;;5019518;28;20038;-91
2023/10/12 07:01:37;;;;;;;2.78;1.40;;;17.30;99.90;;;;;;5036073;28;20053;-92
2023/10/12 07:04:16;;;;;;;3.20;1.30;;;17.10;99.90;;;;;;5018438;28;20034;-90
2023/10/12 07:06:59;;;;;;;2.60;1.38;;;16.90;99.90;;;;;;5033248;28;20421;-89
2023/10/12 07:09:50;;;;;;;;;;;;;;;;;;;;;
2023/10/12 07:13:00;;;;;;;2.85;1.60;;;16.60;99.90;;;;;;4596449;27;15107254;-89
2023/10/12 07:15:41;;;;;;;;;;;;;;;;;;;;;
2023/10/12 07:18:15;;;;;;;3.95;1.67;;;16.50;99.90;;;;;;5111487;28;20143;-90
2023/10/12 07:20:51;;;;;;;3.85;1.65;;;16.50;99.90;;;;;;5095202;28;20485;-90
2023/10/12 07:23:33;;;;;;;3.63;1.50;;;16.40;99.90;;;;;;5076981;28;20115;-90
2023/10/12 07:26:12;;;;;;;3.30;1.63;;;16.40;99.90;;;;;;5093295;28;20027;-87
2023/10/12 07:28:49;;;;;;;2.03;1.23;;;16.40;99.90;;;;;;5086296;28;20030;-89
2023/10/12 07:31:41;;;;;;;4.65;1.48;;;16.30;99.90;;;;;;5096830;28;20024;-89
2023/10/12 07:34:14;;;;;;;3.65;1.55;;;16.30;99.90;;;;;;5123721;28;20028;-88
2023/10/12 07:36:52;;;;;;;3.53;1.20;;;16.20;99.90;;;;;;5093034;28;20032;-89
2023/10/12 07:39:42;;;;;;;3.20;1.13;;;16.20;99.90;;;;;;5092896;28;20024;-88
2023/10/12 07:42:14;;;;;;;4.07;1.70;;;16.20;99.90;;;;;;5096715;28;20068;-87
2023/10/12 07:44:54;;;;;;;3.33;1.20;;;16.10;99.90;;;;;;5096423;28;20470;-87
2023/10/12 07:47:34;;;;;;;3.40;1.52;;;16.20;99.90;;;;;;5113646;28;20119;-87
2023/10/12 07:50:12;;;;;;;3.25;1.10;;;16.10;99.90;;;;;;5112717;28;20027;-88
2023/10/12 07:53:22;;;;;;;3.63;1.48;;;16.10;99.90;;;;;;5126397;28;20038;-90
2023/10/12 07:56:05;;;;;;;3.70;1.48;;;16.20;99.90;;;;;;5096044;28;20024;-89
2023/10/12 07:58:31;;;;;;;3.65;1.50;;;16.20;99.90;;;;;;5093002;28;20032;-88
2023/10/12 08:04:08;;;;;;;3.72;1.27;;;16.10;99.90;;;;;;5104755;28;20402;-88
2023/10/12 08:06:59;;;;;;;3.70;1.50;;;16.10;99.90;;;;;;5088928;28;20479;-90
2023/10/12 08:09:47;;;;;;;2.83;1.35;;;16.20;99.90;;;;;;5059226;28;20411;-89
2023/10/12 08:15:12;;;;;;;2.90;1.42;;;16.10;99.90;;;;;;5102861;28;20089;-87
2023/10/12 08:17:57;;;;;;;3.00;1.45;;;16.10;99.90;;;;;;5114092;28;20019;-89
2023/10/12 08:20:52;;;;;;;2.70;1.40;;;16.10;99.90;;;;;;5112758;28;20466;-90
2023/10/12 08:23:26;;;;;;;2.10;1.20;;;16.10;99.90;;;;;;5068592;28;20537;-88
2023/10/12 08:26:03;;;;;;;3.45;1.60;;;16.10;99.90;;;;;;5096812;28;20052;-88
2023/10/12 08:28:37;;;;;;;2.60;1.27;;;16.10;99.90;;;;;;5075302;28;20484;-88
2023/10/12 08:31:20;;;;;;;2.83;1.55;;;16.10;99.90;;;;;;5079348;28;20032;-88
2023/10/12 08:33:58;;;;;;;2.88;1.25;;;16.10;99.90;;;;;;5070275;28;20464;-88
2023/10/12 08:36:29;;;;;;;1.17;1.00;;;16.10;99.90;;;;;;5059810;28;20086;-89
2023/10/12 08:39:08;;;;;;;2.60;1.05;;;16.20;99.90;;;;;;5099783;28;20023;-89
2023/10/12 08:42:29;;;;;;;1.60;1.08;;;16.20;99.90;;;;;;5095582;28;20031;-89
2023/10/12 08:44:34;;;;;;;;;;;;;;;;;;;;;
2023/10/12 08:47:09;;;;;;;1.40;0.80;;;16.10;99.90;;;;;;5100208;28;20035;-90
2023/10/12 08:50:01;;;;;;;2.97;1.05;;;16.10;99.90;;;;;;5119169;28;20293;-90
2023/10/12 08:52:29;;;;;;;0.88;0.52;;;16.10;99.90;;;;;;5111707;28;20039;-90
2023/10/12 08:55:13;;;;;;;2.60;0.90;;;16.10;99.90;;;;;;5102645;28;20008;-90
2023/10/12 08:58:12;;;;;;;2.78;0.80;;;16.20;99.90;;;;;;5102562;28;20016;-90
2023/10/12 09:00:48;;;;;;;1.33;0.70;;;16.10;99.90;;;;;;5100650;28;20023;-90
2023/10/12 09:09:48;;;;;;;1.40;0.90;;;16.20;99.90;;;;;;5080411;28;20032;-89
2023/10/12 09:12:00;;;;;;;2.08;0.82;;;16.20;99.90;;;;;;5095557;28;20056;-92
2023/10/12 09:14:32;;;;;;;2.08;1.02;;;16.20;99.90;;;;;;5061617;28;20032;-89
2023/10/12 09:17:03;;;;;;;1.08;0.50;;;16.20;99.90;;;;;;5078102;28;20024;-89
2023/10/12 09:19:34;;;;;;;2.10;0.82;;;16.20;99.90;;;;;;5095963;28;20020;-90
2023/10/12 09:22:04;;;;;;;;;;;16.20;99.90;;;;;;5068799;28;20123;-90
2023/10/12 09:24:59;;;;;;;1.58;0.88;;;16.20;99.90;;;;;;5059314;28;19910;-90
2023/10/12 09:27:36;;;;;;;2.55;0.88;;;16.20;99.90;;;;;;5070733;28;20028;-90
2023/10/12 09:30:15;;;;;;;0.65;0.50;;;16.10;99.90;;;;;;5096450;28;20024;-90
2023/10/12 09:32:56;;;;;;;1.58;0.90;;;16.10;99.90;;;;;;5062929;28;20044;-89
2023/10/12 09:35:33;;;;;;;1.73;0.85;;;16.20;99.90;;;;;;5062572;28;20089;-90
2023/10/12 09:38:01;;;;;;;2.25;0.98;;;16.20;99.90;;;;;;5078038;28;20433;-91
2023/10/12 09:40:52;;;;;;;0.88;0.50;;;16.20;99.90;;;;;;5078020;28;20030;-90
2023/10/12 09:43:24;;;;;;;;;;;16.20;99.90;;;;;;5063664;28;20020;-91
2023/10/12 09:45:58;;;;;;;1.40;0.85;;;16.30;99.90;;;;;;5077883;28;19908;-89
2023/10/12 09:48:38;;;;;;;2.08;1.20;;;16.30;99.90;;;;;;5106091;28;20457;-91
2023/10/12 09:51:15;;;;;;;2.03;1.08;;;16.30;99.90;;;;;;5079139;28;20468;-90
2023/10/12 09:53:57;;;;;;;1.33;0.90;;;16.30;99.90;;;;;;5077462;28;20111;-90
2023/10/12 09:56:34;;;;;;;2.13;1.00;;;16.30;99.90;;;;;;5061859;28;20078;-90
2023/10/12 09:59:13;;;;;;;1.88;1.00;;;16.40;99.90;;;;;;5081189;28;20016;-89
2023/10/12 10:10:05;;;;;;;1.23;1.05;;;16.40;99.90;;;;;;5095378;28;20086;-89
2023/10/12 10:12:42;;;;;;;1.52;1.27;;;16.40;99.90;;;;;;5076976;28;20059;-89
2023/10/12 10:15:20;;;;;;;2.08;1.30;;;16.40;99.90;;;;;;5078199;28;20055;-89
2023/10/12 10:17:56;;;;;;;2.88;1.05;;;16.40;99.90;;;;;;5073310;28;20020;-89
2023/10/12 10:23:01;;;;;;;3.97;1.42;;;16.50;99.90;;;;;;5089341;28;20051;-90
2023/10/12 10:25:34;;;;;;;1.70;1.30;;;16.50;99.90;;;;;;5077487;28;20026;-89
2023/10/12 10:28:13;;;;;;;2.20;1.70;;;16.50;99.90;;;;;;5095963;28;20020;-89
2023/10/12 10:30:49;;;;;;;2.33;1.65;;;16.50;99.90;;;;;;5080625;28;20027;-89
2023/10/12 10:33:25;;;;;;;1.80;1.35;;;16.50;99.90;;;;;;5078782;28;20081;-88
2023/10/12 10:41:45;;;;;;;2.97;2.08;;;16.60;99.90;;;;;;5117665;28;20023;-89
2023/10/12 10:44:19;;;;;;;2.60;1.90;;;16.60;99.90;;;;;;5098531;28;20073;-86
2023/10/12 10:47:00;;;;;;;2.55;2.10;;;16.70;99.90;;;;;;5090852;28;20020;-89
2023/10/12 10:49:31;;;;;;;2.28;1.90;;;16.70;99.90;;;;;;5077403;28;20506;-89
2023/10/12 10:54:37;;;;;;;3.17;2.78;;;16.80;99.90;;;;;;5074684;28;20511;-88
2023/10/12 10:57:15;;;;;;;3.80;3.15;;;16.80;99.90;;;;;;5074925;28;20047;-89
2023/10/12 11:02:35;;;;;;;3.88;3.28;;;16.90;99.90;;;;;;5088450;28;20118;-89
2023/10/12 11:05:09;;;;;;;4.38;3.55;;;17.00;99.90;;;;;;5049959;28;20033;-89
2023/10/12 11:07:40;;;;;;;4.05;3.63;;;17.00;99.90;;;;;;5040354;28;20029;-89
2023/10/12 11:10:07;;;;;;;4.38;3.97;;;17.00;99.90;;;;;;5056415;28;20028;-90
2023/10/12 11:12:36;;;;;;;4.45;4.05;;;17.10;99.90;;;;;;5069230;28;20572;-89
2023/10/12 11:15:11;;;;;;;5.05;4.22;;;17.10;99.90;;;;;;5054250;28;20028;-89
2023/10/12 11:18:00;;;;;;;5.18;4.30;;;17.10;99.90;;;;;;5069939;28;20024;-89
2023/10/12 11:20:38;;;;;;;5.35;4.28;;;17.20;99.90;;;;;;5084506;28;20028;-89
2023/10/12 11:23:10;;;;;;;4.55;4.03;;;17.30;99.90;;;;;;5073291;28;20120;-89
2023/10/12 11:25:55;;;;;;;6.38;5.00;;;17.30;99.90;;;;;;5072906;28;20036;-89
2023/10/12 11:28:33;;;;;;;5.63;4.95;;;17.40;99.90;;;;;;5072624;28;20021;-90
2023/10/12 11:31:20;;;;;;;6.15;5.00;;;17.40;99.90;;;;;;5073022;28;20028;-89
2023/10/12 11:33:53;;;;;;;5.38;4.50;;;17.40;99.90;;;;;;5074327;28;20017;-90
2023/10/12 11:36:32;;;;;;;5.13;4.43;;;17.40;99.90;;;;;;5075007;28;20024;-89
2023/10/12 11:39:21;;;;;;;5.32;4.82;;;17.40;99.90;;;;;;5093041;28;20020;-90
2023/10/12 11:42:07;;;;;;;7.80;5.30;;;17.50;99.90;;;;;;5093283;28;20028;-88
2023/10/12 11:44:45;;;;;;;6.18;5.28;;;17.50;99.90;;;;;;5076232;28;20115;-90
2023/10/12 11:47:37;;;;;;;6.70;5.30;;;17.60;99.90;;;;;;5073208;28;20035;-89
2023/10/12 11:50:09;;;;;;;5.45;4.95;;;17.60;99.90;;;;;;5073387;28;20031;-88
2023/10/12 11:52:50;;;;;;;5.90;5.30;;;17.60;99.90;;;;;;5073366;28;20032;-89
2023/10/12 11:55:24;;;;;;;6.32;5.50;;;17.70;99.90;;;;;;5079174;28;20032;-91
2023/10/12 11:57:54;;;;;;;5.90;5.30;;;17.70;99.90;;;;;;5058010;28;20036;-90
2023/10/12 12:00:38;;;;;;;6.13;5.53;;;17.70;99.90;;;;;;5077157;28;20024;-91
2023/10/12 12:03:13;;;;;;;9.27;5.90;;;17.70;99.90;;;;;;5077061;28;20016;-89
2023/10/12 12:05:41;;;;;;;7.55;5.95;;;17.70;99.90;;;;;;5090527;28;20024;-90
2023/10/12 12:08:18;;;;;;;7.57;5.35;;;17.70;99.90;;;;;;5058405;28;20017;-89
2023/10/12 12:10:56;;;;;;;6.50;5.20;;;17.70;99.90;;;;;;5091602;28;20028;-89
2023/10/12 12:13:24;;;;;;;6.28;5.63;;;17.70;99.90;;;;;;5089492;28;20043;-91
2023/10/12 12:15:55;;;;;;;5.75;5.13;;;17.70;99.90;;;;;;5092293;28;20039;-91
2023/10/12 12:18:41;;;;;;;6.20;5.60;;;17.80;99.90;;;;;;5081081;28;20024;-91
2023/10/12 12:21:19;;;;;;;7.07;5.90;;;17.80;99.90;;;;;;5098214;28;20033;-90
2023/10/12 12:24:05;;;;;;;6.80;5.47;;;17.80;99.90;;;;;;5094569;28;20032;-91
2023/10/12 12:26:39;;;;;;;8.82;6.28;;;17.90;99.90;;;;;;5113924;28;20095;-90
2023/10/12 12:29:26;;;;;;;6.90;6.10;;;17.90;99.90;;;;;;5101862;28;20031;-92
2023/10/12 12:31:57;;;;;;;8.27;7.30;;;17.90;99.90;;;;;;5080476;28;20028;-90
2023/10/12 12:34:51;;;;;;;11.70;6.90;;;17.90;99.90;;;;;;5097399;28;20032;-91
2023/10/12 12:37:43;;;;;;;8.40;7.15;;;17.90;99.90;;;;;;5081081;28;20217;-90
2023/10/12 12:40:29;;;;;;;9.90;7.10;;;17.90;99.90;;;;;;5051548;28;20040;-90
2023/10/12 12:42:56;;;;;;;8.80;7.53;;;18.00;99.90;;;;;;5064074;28;20487;-88
2023/10/12 12:45:47;;;;;;;10.10;7.57;;;18.00;99.90;;;;;;5098991;28;20047;-91
2023/10/12 12:48:30;;;;;;;9.48;8.40;;;18.10;99.90;;;;;;5051778;28;20016;-89
2023/10/12 12:51:01;;;;;;;9.52;7.88;;;18.10;99.90;;;;;;5084541;28;20028;-90
2023/10/12 12:53:34;;;;;;;10.23;8.15;;;18.10;99.90;;;;;;5086855;28;20028;-89
2023/10/12 12:56:10;;;;;;;11.93;9.02;;;18.10;99.90;;;;;;5063496;28;20020;-89
2023/10/12 12:58:52;;;;;;;12.75;9.77;;;18.10;99.90;;;;;;5096752;28;20035;-91
2023/10/12 13:01:31;;;;;;;12.30;9.52;;;18.20;99.90;;;;;;5078342;28;20035;-90
2023/10/12 13:04:03;;;;;;;11.70;8.68;;;18.20;99.90;;;;;;5077980;28;20027;-90
2023/10/12 13:06:38;;;;;;;10.93;9.50;;;18.20;99.90;;;;;;5046086;28;20368;-90
2023/10/12 13:09:33;;;;;;;13.10;10.02;;;18.20;99.90;;;;;;5062691;28;20081;-89
2023/10/12 13:11:59;;;;;;;10.77;9.30;;;18.20;99.90;;;;;;5078512;28;20060;-91
2023/10/12 13:14:34;;;;;;;13.05;9.15;;;18.20;99.90;;;;;;5078178;28;20023;-91
2023/10/12 13:17:17;;;;;;;10.85;9.00;;;18.20;99.90;;;;;;5097867;28;20074;-89
2023/10/12 13:20:01;;;;;;;12.00;9.45;;;18.30;99.90;;;;;;5098726;28;20050;-90
2023/10/12 13:22:30;;;;;;;11.70;9.48;;;18.30;99.90;;;;;;5092356;28;20059;-91
2023/10/12 13:24:58;;;;;;;11.40;9.25;;;18.30;99.90;;;;;;5078122;28;20024;-90
2023/10/12 13:27:29;;;;;;;12.52;9.68;;;18.30;99.90;;;;;;5050810;28;20024;-89
2023/10/12 13:30:16;;;;;;;10.45;8.90;;;18.30;99.90;;;;;;5058419;28;20059;-89
2023/10/12 13:33:11;;;;;;;;;;;;;;;;;;;;;
2023/10/12 13:35:45;;;;;;;9.73;8.65;;;18.30;99.90;;;;;;5059670;28;20464;-89
2023/10/12 13:38:29;;;;;;;;;;;;;;;;;;;;;
2023/10/12 13:40:59;;;;;;;12.35;8.82;;;18.30;99.90;;;;;;5079889;28;20476;-91
2023/10/12 13:43:37;;;;;;;10.70;9.60;;;18.30;99.90;;;;;;5080303;28;20028;-89
2023/10/12 13:46:17;;;;;;;10.68;8.80;;;18.30;99.90;;;;;;5097117;28;20097;-91
2023/10/12 13:48:48;;;;;;;9.60;8.60;;;18.30;99.90;;;;;;5059832;28;20052;-91
2023/10/12 13:51:24;;;;;;;10.10;8.38;;;18.30;99.90;;;;;;5057751;28;20463;-90
2023/10/12 13:53:53;;;;;;;10.13;7.88;;;18.30;99.90;;;;;;5075662;28;20028;-91
2023/10/12 13:56:24;;;;;;;10.48;8.30;;;18.30;99.90;;;;;;5096280;28;20047;-91
2023/10/12 13:58:58;;;;;;;10.43;8.23;;;18.30;99.90;;;;;;5081582;28;20054;-91
2023/10/12 14:01:54;;;;;;;12.13;9.30;;;18.30;99.90;;;;;;5081502;28;20092;-91
2023/10/12 14:04:29;;;;;;;12.27;9.55;;;18.30;99.90;;;;;;5090832;28;20084;-91
2023/10/12 14:07:01;;;;;;;11.43;9.63;;;18.30;99.90;;;;;;5104351;28;20024;-92
2023/10/12 14:09:28;;;;;;;11.80;9.40;;;18.30;99.90;;;;;;5080522;28;20024;-90
2023/10/12 14:11:55;;;;;;;10.75;9.65;;;18.30;99.90;;;;;;5096439;28;20052;-90
2023/10/12 14:14:28;;;;;;;11.63;9.25;;;18.30;99.90;;;;;;5112949;28;20028;-90
2023/10/12 14:16:57;;;;;;;12.57;10.57;;;18.30;99.90;;;;;;5088706;28;20387;-90
2023/10/12 14:19:30;;;;;;;13.27;10.13;;;18.30;99.90;;;;;;5079929;28;20028;-91
2023/10/12 14:21:59;;;;;;;11.98;9.77;;;18.30;99.90;;;;;;5078371;28;20035;-90
2023/10/12 14:24:24;;;;;;;13.85;10.30;;;18.30;99.90;;;;;;5077490;28;20472;-91
2023/10/12 14:26:58;;;;;;;12.73;9.88;;;18.20;99.90;;;;;;5095519;28;20024;-90
2023/10/12 14:29:26;;;;;;;12.05;9.38;;;18.20;99.90;;;;;;5057735;28;20090;-92
2023/10/12 14:31:56;;;;;;;12.82;9.25;;;18.20;99.90;;;;;;5088939;28;20041;-91
2023/10/12 14:34:27;;;;;;;11.32;8.50;;;18.20;99.90;;;;;;5081929;28;20059;-90
2023/10/12 14:37:14;;;;;;;10.57;8.73;;;18.20;99.90;;;;;;5075677;28;20028;-88
2023/10/12 14:39:48;;;;;;;11.77;8.40;;;18.30;99.90;;;;;;5077135;28;20036;-90
2023/10/12 14:42:16;;;;;;;11.15;8.98;;;18.30;99.90;;;;;;5097112;28;20024;-90
2023/10/12 14:44:43;;;;;;;11.65;9.02;;;18.30;99.90;;;;;;5077844;28;20093;-89
2023/10/12 14:47:18;;;;;;;13.52;8.50;;;18.30;99.90;;;;;;5082911;28;20020;-92
2023/10/12 14:49:53;;;;;;;13.90;8.75;;;18.30;99.90;;;;;;5085513;28;20028;-90
2023/10/12 14:52:31;;;;;;;11.07;8.25;;;18.30;99.90;;;;;;5081712;28;20020;-91
2023/10/12 14:54:59;;;;;;;9.43;7.72;;;18.30;99.90;;;;;;5054180;28;20032;-91
2023/10/12 14:57:41;;;;;;;10.88;7.75;;;18.30;99.90;;;;;;5066254;28;20032;-91
2023/10/12 15:02:59;;;;;;;8.05;6.45;;;18.30;99.90;;;;;;5086877;28;20028;-92
2023/10/12 15:05:38;;;;;;;9.45;6.68;;;18.30;99.90;;;;;;5076284;28;20177;-90
2023/10/12 15:08:08;;;;;;;8.35;6.22;;;18.30;99.90;;;;;;5094275;28;20045;-91
2023/10/12 15:10:43;;;;;;;9.93;6.55;;;18.30;99.90;;;;;;5076144;28;20023;-89
2023/10/12 15:13:13;;;;;;;7.38;5.40;;;18.30;99.90;;;;;;5076000;28;20107;-90
2023/10/12 15:15:40;;;;;;;8.00;5.75;;;18.30;99.90;;;;;;5076635;28;20023;-90
2023/10/12 15:18:09;;;;;;;9.85;5.75;;;18.30;99.90;;;;;;5094403;28;20024;-89
2023/10/12 15:20:43;;;;;;;7.57;5.07;;;18.30;99.90;;;;;;5074411;28;20031;-90
2023/10/12 15:23:14;;;;;;;5.82;5.00;;;18.30;99.90;;;;;;5084648;28;20031;-92
2023/10/12 15:26:11;;;;;;;8.65;5.70;;;18.30;99.90;;;;;;5076924;28;20111;-91
2023/10/12 15:28:36;;;;;;;8.93;5.65;;;18.30;99.90;;;;;;5078604;28;20039;-91
2023/10/12 15:31:16;;;;;;;6.85;5.53;;;18.40;99.90;;;;;;5075970;28;20036;-89